sensor_id;sensor_type;location;lat;lon;timestamp;pressure;altitude;pressure_sealevel;temperature;humidity
22025;BME280;11176;51.448;6.650;2023-02-15T00:01:41;45670.03;;;-141.29;86.76
22025;BME280;11176;51.448;6.650;2023-02-15T00:04:09;45664.03;;;-141.29;86.61
22025;BME280;11176;51.448;6.650;2023-02-15T00:06:36;45682.00;;;-141.29;86.72
22025;BME280;11176;51.448;6.650;2023-02-15T00:09:02;45668.03;;;-141.29;86.76
22025;BME280;11176;51.448;6.650;2023-02-15T00:11:29;45698.00;;;-141.29;86.87
22025;BME280;11176;51.448;6.650;2023-02-15T00:14:20;45678.03;;;-141.29;87.07
22025;BME280;11176;51.448;6.650;2023-02-15T00:16:47;45658.03;;;-141.29;86.87
22025;BME280;11176;51.448;6.650;2023-02-15T00:19:19;45672.03;;;-141.29;87.15
22025;BME280;11176;51.448;6.650;2023-02-15T00:21:47;45674.03;;;-141.29;86.55
22025;BME280;11176;51.448;6.650;2023-02-15T00:24:15;45686.00;;;-141.29;86.48
22025;BME280;11176;51.448;6.650;2023-02-15T00:26:43;45678.03;;;-141.29;86.58
22025;BME280;11176;51.448;6.650;2023-02-15T00:29:10;45666.03;;;-141.29;86.64
22025;BME280;11176;51.448;6.650;2023-02-15T00:31:37;45672.03;;;-141.29;86.59
22025;BME280;11176;51.448;6.650;2023-02-15T00:34:17;45692.00;;;-141.29;86.67
22025;BME280;11176;51.448;6.650;2023-02-15T00:36:44;45680.03;;;-141.29;86.74
22025;BME280;11176;51.448;6.650;2023-02-15T00:39:13;45662.03;;;-141.29;86.45
22025;BME280;11176;51.448;6.650;2023-02-15T00:41:40;45686.00;;;-141.29;86.68
22025;BME280;11176;51.448;6.650;2023-02-15T00:44:07;45690.00;;;-141.29;86.79
22025;BME280;11176;51.448;6.650;2023-02-15T00:46:34;45670.03;;;-141.29;86.77
22025;BME280;11176;51.448;6.650;2023-02-15T00:49:01;45676.03;;;-141.29;86.15
22025;BME280;11176;51.448;6.650;2023-02-15T00:51:28;45682.00;;;-141.29;86.44
22025;BME280;11176;51.448;6.650;2023-02-15T00:53:54;45682.00;;;-141.29;86.62
22025;BME280;11176;51.448;6.650;2023-02-15T00:56:21;45666.03;;;-141.29;86.83
22025;BME280;11176;51.448;6.650;2023-02-15T00:58:48;45694.00;;;-141.29;86.85
22025;BME280;11176;51.448;6.650;2023-02-15T01:01:17;45698.00;;;-141.29;87.06
22025;BME280;11176;51.448;6.650;2023-02-15T01:03:44;45684.00;;;-141.29;87.07
22025;BME280;11176;51.448;6.650;2023-02-15T01:06:14;45678.03;;;-141.29;87.23
22025;BME280;11176;51.448;6.650;2023-02-15T01:08:43;45694.00;;;-141.29;86.90
22025;BME280;11176;51.448;6.650;2023-02-15T01:11:13;45664.03;;;-141.29;86.95
22025;BME280;11176;51.448;6.650;2023-02-15T01:13:41;45686.00;;;-141.29;86.98
22025;BME280;11176;51.448;6.650;2023-02-15T01:16:08;45678.03;;;-141.29;87.20
22025;BME280;11176;51.448;6.650;2023-02-15T01:18:35;45694.00;;;-141.29;87.34
22025;BME280;11176;51.448;6.650;2023-02-15T01:21:28;45692.00;;;-141.29;87.34
22025;BME280;11176;51.448;6.650;2023-02-15T01:23:55;45658.03;;;-141.29;87.48
22025;BME280;11176;51.448;6.650;2023-02-15T01:26:21;45706.00;;;-141.29;87.36
22025;BME280;11176;51.448;6.650;2023-02-15T01:28:48;45698.00;;;-141.29;87.41
22025;BME280;11176;51.448;6.650;2023-02-15T01:31:17;45672.03;;;-141.29;87.84
22025;BME280;11176;51.448;6.650;2023-02-15T01:33:45;45698.00;;;-141.29;87.71
22025;BME280;11176;51.448;6.650;2023-02-15T01:36:12;45690.00;;;-141.29;87.64
22025;BME280;11176;51.448;6.650;2023-02-15T01:38:39;45692.00;;;-141.29;87.78
22025;BME280;11176;51.448;6.650;2023-02-15T01:41:06;45682.00;;;-141.29;88.12
22025;BME280;11176;51.448;6.650;2023-02-15T01:44:00;45694.00;;;-141.29;87.59
22025;BME280;11176;51.448;6.650;2023-02-15T01:46:33;45702.00;;;-141.29;87.98
22025;BME280;11176;51.448;6.650;2023-02-15T01:49:22;45712.00;;;-141.29;88.23
22025;BME280;11176;51.448;6.650;2023-02-15T01:51:52;45676.03;;;-141.29;87.85
22025;BME280;11176;51.448;6.650;2023-02-15T01:54:24;45698.00;;;-141.29;88.29
22025;BME280;11176;51.448;6.650;2023-02-15T01:56:54;45682.00;;;-141.29;88.09
22025;BME280;11176;51.448;6.650;2023-02-15T01:59:23;45688.00;;;-141.29;88.07
22025;BME280;11176;51.448;6.650;2023-02-15T02:01:57;45670.03;;;-141.29;88.05
22025;BME280;11176;51.448;6.650;2023-02-15T02:04:49;45694.00;;;-141.29;88.45
22025;BME280;11176;51.448;6.650;2023-02-15T02:07:19;45718.00;;;-141.29;88.16
22025;BME280;11176;51.448;6.650;2023-02-15T02:09:47;45704.00;;;-141.29;88.65
22025;BME280;11176;51.448;6.650;2023-02-15T02:12:16;45710.00;;;-141.29;88.20
22025;BME280;11176;51.448;6.650;2023-02-15T02:14:45;45704.00;;;-141.29;88.81
22025;BME280;11176;51.448;6.650;2023-02-15T02:17:18;45706.00;;;-141.29;88.88
22025;BME280;11176;51.448;6.650;2023-02-15T02:34:35;45718.00;;;-141.29;89.13
22025;BME280;11176;51.448;6.650;2023-02-15T02:37:31;45712.00;;;-141.29;89.54
22025;BME280;11176;51.448;6.650;2023-02-15T02:40:25;45718.00;;;-141.29;89.40
22025;BME280;11176;51.448;6.650;2023-02-15T02:43:03;45702.00;;;-141.29;89.43
22025;BME280;11176;51.448;6.650;2023-02-15T02:45:37;45702.00;;;-141.29;89.33
22025;BME280;11176;51.448;6.650;2023-02-15T02:48:10;45694.00;;;-141.29;89.21
22025;BME280;11176;51.448;6.650;2023-02-15T02:50:40;45702.00;;;-141.29;89.71
22025;BME280;11176;51.448;6.650;2023-02-15T02:53:09;45702.00;;;-141.29;89.87
22025;BME280;11176;51.448;6.650;2023-02-15T02:55:41;45686.00;;;-141.29;89.33
22025;BME280;11176;51.448;6.650;2023-02-15T02:58:18;45708.00;;;-141.29;89.53
22025;BME280;11176;51.448;6.650;2023-02-15T03:00:50;45704.00;;;-141.29;89.64
22025;BME280;11176;51.448;6.650;2023-02-15T03:03:27;45714.00;;;-141.29;89.58
22025;BME280;11176;51.448;6.650;2023-02-15T03:06:02;45741.97;;;-141.29;89.71
22025;BME280;11176;51.448;6.650;2023-02-15T03:08:40;45702.00;;;-141.29;89.90
22025;BME280;11176;51.448;6.650;2023-02-15T03:11:08;45702.00;;;-141.29;90.14
22025;BME280;11176;51.448;6.650;2023-02-15T03:13:35;45710.00;;;-141.29;90.10
22025;BME280;11176;51.448;6.650;2023-02-15T03:16:05;45720.00;;;-141.29;90.06
22025;BME280;11176;51.448;6.650;2023-02-15T03:18:55;45708.00;;;-141.29;90.20
22025;BME280;11176;51.448;6.650;2023-02-15T03:21:30;45714.00;;;-141.29;90.15
22025;BME280;11176;51.448;6.650;2023-02-15T03:24:02;45714.00;;;-141.29;90.33
22025;BME280;11176;51.448;6.650;2023-02-15T03:26:32;45704.00;;;-141.29;90.54
22025;BME280;11176;51.448;6.650;2023-02-15T03:29:02;45694.00;;;-141.29;90.77
22025;BME280;11176;51.448;6.650;2023-02-15T03:31:32;45700.00;;;-141.29;90.71
22025;BME280;11176;51.448;6.650;2023-02-15T03:34:04;45710.00;;;-141.29;90.79
22025;BME280;11176;51.448;6.650;2023-02-15T03:36:43;45710.00;;;-141.29;90.96
22025;BME280;11176;51.448;6.650;2023-02-15T03:39:17;45698.00;;;-141.29;90.69
22025;BME280;11176;51.448;6.650;2023-02-15T03:44:27;45718.00;;;-141.29;91.01
22025;BME280;11176;51.448;6.650;2023-02-15T03:47:10;45706.00;;;-141.29;90.65
22025;BME280;11176;51.448;6.650;2023-02-15T03:49:45;45710.00;;;-141.29;91.01
22025;BME280;11176;51.448;6.650;2023-02-15T03:52:15;45735.97;;;-141.29;90.84
22025;BME280;11176;51.448;6.650;2023-02-15T03:54:43;45702.00;;;-141.29;90.68
22025;BME280;11176;51.448;6.650;2023-02-15T03:57:21;45706.00;;;-141.29;90.93
22025;BME280;11176;51.448;6.650;2023-02-15T04:00:16;45722.00;;;-141.29;90.92
22025;BME280;11176;51.448;6.650;2023-02-15T04:03:26;45710.00;;;-141.29;91.16
22025;BME280;11176;51.448;6.650;2023-02-15T04:05:55;45729.97;;;-141.29;91.20
22025;BME280;11176;51.448;6.650;2023-02-15T04:08:21;45712.00;;;-141.29;91.07
22025;BME280;11176;51.448;6.650;2023-02-15T04:11:08;45710.00;;;-141.29;91.03
22025;BME280;11176;51.448;6.650;2023-02-15T04:13:34;45698.00;;;-141.29;91.12
22025;BME280;11176;51.448;6.650;2023-02-15T04:16:02;45739.97;;;-141.29;90.89
22025;BME280;11176;51.448;6.650;2023-02-15T04:18:39;45722.00;;;-141.29;91.07
22025;BME280;11176;51.448;6.650;2023-02-15T04:21:26;45722.00;;;-141.29;91.56
22025;BME280;11176;51.448;6.650;2023-02-15T04:24:12;45747.97;;;-141.29;90.82
22025;BME280;11176;51.448;6.650;2023-02-15T04:26:59;45710.00;;;-141.29;91.34
22025;BME280;11176;51.448;6.650;2023-02-15T04:29:27;45722.00;;;-141.29;91.89
22025;BME280;11176;51.448;6.650;2023-02-15T04:31:55;45706.00;;;-141.29;91.85
22025;BME280;11176;51.448;6.650;2023-02-15T04:34:22;45722.00;;;-141.29;91.81
22025;BME280;11176;51.448;6.650;2023-02-15T04:36:49;45727.97;;;-141.29;91.65
22025;BME280;11176;51.448;6.650;2023-02-15T04:39:17;45733.97;;;-141.29;91.91
22025;BME280;11176;51.448;6.650;2023-02-15T04:41:44;45729.97;;;-141.29;92.07
22025;BME280;11176;51.448;6.650;2023-02-15T04:44:10;45716.00;;;-141.29;91.95
22025;BME280;11176;51.448;6.650;2023-02-15T04:46:37;45722.00;;;-141.29;91.94
22025;BME280;11176;51.448;6.650;2023-02-15T04:49:04;45718.00;;;-141.29;91.86
22025;BME280;11176;51.448;6.650;2023-02-15T04:51:30;45722.00;;;-141.29;91.98
22025;BME280;11176;51.448;6.650;2023-02-15T04:53:57;45729.97;;;-141.29;92.05
22025;BME280;11176;51.448;6.650;2023-02-15T04:56:24;45737.97;;;-141.29;91.95
22025;BME280;11176;51.448;6.650;2023-02-15T04:58:50;45706.00;;;-141.29;91.90
22025;BME280;11176;51.448;6.650;2023-02-15T05:01:17;45718.00;;;-141.29;92.16
22025;BME280;11176;51.448;6.650;2023-02-15T05:03:43;45712.00;;;-141.29;92.12
22025;BME280;11176;51.448;6.650;2023-02-15T05:06:10;45733.97;;;-141.29;91.87
22025;BME280;11176;51.448;6.650;2023-02-15T05:08:37;45729.97;;;-141.29;91.82
22025;BME280;11176;51.448;6.650;2023-02-15T05:11:03;45737.97;;;-141.29;92.21
22025;BME280;11176;51.448;6.650;2023-02-15T05:13:30;45729.97;;;-141.29;92.05
22025;BME280;11176;51.448;6.650;2023-02-15T05:15:57;45727.97;;;-141.29;91.88
22025;BME280;11176;51.448;6.650;2023-02-15T05:18:23;45725.97;;;-141.29;91.99
22025;BME280;11176;51.448;6.650;2023-02-15T05:20:50;45722.00;;;-141.29;92.05
22025;BME280;11176;51.448;6.650;2023-02-15T05:23:16;45737.97;;;-141.29;92.21
22025;BME280;11176;51.448;6.650;2023-02-15T05:25:49;45727.97;;;-141.29;92.19
22025;BME280;11176;51.448;6.650;2023-02-15T05:28:36;45745.97;;;-141.29;91.83
22025;BME280;11176;51.448;6.650;2023-02-15T05:31:06;45714.00;;;-141.29;91.83
22025;BME280;11176;51.448;6.650;2023-02-15T05:33:33;45718.00;;;-141.29;92.10
22025;BME280;11176;51.448;6.650;2023-02-15T05:36:00;45724.00;;;-141.29;91.88
22025;BME280;11176;51.448;6.650;2023-02-15T05:38:28;45725.97;;;-141.29;91.79
22025;BME280;11176;51.448;6.650;2023-02-15T05:40:54;45714.00;;;-141.29;91.83
22025;BME280;11176;51.448;6.650;2023-02-15T05:43:21;45733.97;;;-141.29;91.92
22025;BME280;11176;51.448;6.650;2023-02-15T05:45:53;45739.97;;;-141.29;92.19
22025;BME280;11176;51.448;6.650;2023-02-15T05:48:21;45749.97;;;-141.29;92.08
22025;BME280;11176;51.448;6.650;2023-02-15T05:51:00;45733.97;;;-141.29;92.27
22025;BME280;11176;51.448;6.650;2023-02-15T05:53:27;45745.97;;;-141.29;91.97
22025;BME280;11176;51.448;6.650;2023-02-15T05:55:55;45731.97;;;-141.29;92.23
22025;BME280;11176;51.448;6.650;2023-02-15T05:58:26;45729.97;;;-141.29;92.25
22025;BME280;11176;51.448;6.650;2023-02-15T06:00:53;45718.00;;;-141.29;92.36
22025;BME280;11176;51.448;6.650;2023-02-15T06:03:20;45745.97;;;-141.29;92.01
22025;BME280;11176;51.448;6.650;2023-02-15T06:05:47;45763.97;;;-141.29;92.24
22025;BME280;11176;51.448;6.650;2023-02-15T06:08:13;45725.97;;;-141.29;92.24
22025;BME280;11176;51.448;6.650;2023-02-15T06:10:40;45714.00;;;-141.29;92.12
22025;BME280;11176;51.448;6.650;2023-02-15T06:13:06;45737.97;;;-141.29;92.14
22025;BME280;11176;51.448;6.650;2023-02-15T06:15:33;45745.97;;;-141.29;91.80
22025;BME280;11176;51.448;6.650;2023-02-15T06:17:59;45749.97;;;-141.29;91.86
22025;BME280;11176;51.448;6.650;2023-02-15T06:20:26;45745.97;;;-141.29;92.07
22025;BME280;11176;51.448;6.650;2023-02-15T06:22:53;45733.97;;;-141.29;91.51
22025;BME280;11176;51.448;6.650;2023-02-15T06:25:19;45710.00;;;-141.29;91.78
22025;BME280;11176;51.448;6.650;2023-02-15T06:27:46;45751.97;;;-141.29;91.69
22025;BME280;11176;51.448;6.650;2023-02-15T06:30:13;45741.97;;;-141.29;92.14
22025;BME280;11176;51.448;6.650;2023-02-15T06:32:39;45745.97;;;-141.29;91.94
22025;BME280;11176;51.448;6.650;2023-02-15T06:35:07;45729.97;;;-141.29;91.83
22025;BME280;11176;51.448;6.650;2023-02-15T06:37:33;45725.97;;;-141.29;91.85
22025;BME280;11176;51.448;6.650;2023-02-15T06:39:59;45729.97;;;-141.29;91.60
22025;BME280;11176;51.448;6.650;2023-02-15T06:42:29;45757.97;;;-141.29;91.71
22025;BME280;11176;51.448;6.650;2023-02-15T06:44:56;45741.97;;;-141.29;91.93
22025;BME280;11176;51.448;6.650;2023-02-15T06:47:22;45743.97;;;-141.29;91.83
22025;BME280;11176;51.448;6.650;2023-02-15T06:49:49;45749.97;;;-141.29;91.74
22025;BME280;11176;51.448;6.650;2023-02-15T06:52:15;45735.97;;;-141.29;91.69
22025;BME280;11176;51.448;6.650;2023-02-15T06:54:41;45743.97;;;-141.29;91.83
22025;BME280;11176;51.448;6.650;2023-02-15T06:57:08;45722.00;;;-141.29;92.19
22025;BME280;11176;51.448;6.650;2023-02-15T06:59:35;45737.97;;;-141.29;92.32
22025;BME280;11176;51.448;6.650;2023-02-15T07:02:02;45745.97;;;-141.29;92.48
22025;BME280;11176;51.448;6.650;2023-02-15T07:04:28;45725.97;;;-141.29;92.31
22025;BME280;11176;51.448;6.650;2023-02-15T07:06:56;45739.97;;;-141.29;92.07
22025;BME280;11176;51.448;6.650;2023-02-15T07:09:22;45745.97;;;-141.29;92.28
22025;BME280;11176;51.448;6.650;2023-02-15T07:11:49;45722.00;;;-141.29;92.36
22025;BME280;11176;51.448;6.650;2023-02-15T07:14:34;45741.97;;;-141.29;92.27
22025;BME280;11176;51.448;6.650;2023-02-15T07:17:01;45743.97;;;-141.29;92.17
22025;BME280;11176;51.448;6.650;2023-02-15T07:19:28;45722.00;;;-141.29;92.11
22025;BME280;11176;51.448;6.650;2023-02-15T07:21:54;45733.97;;;-141.29;91.63
22025;BME280;11176;51.448;6.650;2023-02-15T07:24:20;45749.97;;;-141.29;91.51
22025;BME280;11176;51.448;6.650;2023-02-15T07:26:47;45745.97;;;-141.29;91.72
22025;BME280;11176;51.448;6.650;2023-02-15T07:29:13;45739.97;;;-141.29;91.62
22025;BME280;11176;51.448;6.650;2023-02-15T07:31:40;45757.97;;;-141.29;91.62
22025;BME280;11176;51.448;6.650;2023-02-15T07:34:08;45739.97;;;-141.29;91.49
22025;BME280;11176;51.448;6.650;2023-02-15T07:36:34;45729.97;;;-141.29;91.31
22025;BME280;11176;51.448;6.650;2023-02-15T07:39:01;45745.97;;;-141.29;91.37
22025;BME280;11176;51.448;6.650;2023-02-15T07:41:27;45741.97;;;-141.29;91.09
22025;BME280;11176;51.448;6.650;2023-02-15T07:43:54;45757.97;;;-141.29;91.32
22025;BME280;11176;51.448;6.650;2023-02-15T07:46:20;45733.97;;;-141.29;90.89
22025;BME280;11176;51.448;6.650;2023-02-15T07:48:47;45743.97;;;-141.29;90.70
22025;BME280;11176;51.448;6.650;2023-02-15T07:51:14;45718.00;;;-141.29;90.38
22025;BME280;11176;51.448;6.650;2023-02-15T07:53:41;45739.97;;;-141.29;90.20
22025;BME280;11176;51.448;6.650;2023-02-15T07:56:12;45733.97;;;-141.29;90.23
22025;BME280;11176;51.448;6.650;2023-02-15T07:58:39;45718.00;;;-141.29;90.45
22025;BME280;11176;51.448;6.650;2023-02-15T08:01:23;45725.97;;;-141.29;90.29
22025;BME280;11176;51.448;6.650;2023-02-15T08:03:52;45737.97;;;-141.29;90.14
22025;BME280;11176;51.448;6.650;2023-02-15T08:06:21;45741.97;;;-141.29;89.92
22025;BME280;11176;51.448;6.650;2023-02-15T08:08:47;45745.97;;;-141.29;90.16
22025;BME280;11176;51.448;6.650;2023-02-15T08:19:19;45714.00;;;-141.29;89.29
22025;BME280;11176;51.448;6.650;2023-02-15T08:21:52;45722.00;;;-141.29;88.87
22025;BME280;11176;51.448;6.650;2023-02-15T08:24:21;45741.97;;;-141.29;88.74
22025;BME280;11176;51.448;6.650;2023-02-15T08:26:49;45729.97;;;-141.29;88.42
22025;BME280;11176;51.448;6.650;2023-02-15T08:29:18;45737.97;;;-141.29;87.98
22025;BME280;11176;51.448;6.650;2023-02-15T08:31:46;45722.00;;;-141.29;87.39
22025;BME280;11176;51.448;6.650;2023-02-15T08:34:17;45706.00;;;-141.29;87.52
22025;BME280;11176;51.448;6.650;2023-02-15T08:36:44;45720.00;;;-141.29;87.05
22025;BME280;11176;51.448;6.650;2023-02-15T08:39:14;45718.00;;;-141.29;87.17
22025;BME280;11176;51.448;6.650;2023-02-15T08:41:46;45722.00;;;-141.29;87.59
22025;BME280;11176;51.448;6.650;2023-02-15T08:44:14;45702.00;;;-141.29;86.92
22025;BME280;11176;51.448;6.650;2023-02-15T08:46:43;45716.00;;;-141.29;86.83
22025;BME280;11176;51.448;6.650;2023-02-15T08:49:13;45718.00;;;-141.29;86.37
22025;BME280;11176;51.448;6.650;2023-02-15T08:51:39;45716.00;;;-141.29;86.35
22025;BME280;11176;51.448;6.650;2023-02-15T08:54:08;45714.00;;;-141.29;85.84
22025;BME280;11176;51.448;6.650;2023-02-15T08:56:37;45714.00;;;-141.29;85.66
22025;BME280;11176;51.448;6.650;2023-02-15T08:59:05;45710.00;;;-141.29;85.39
22025;BME280;11176;51.448;6.650;2023-02-15T09:01:33;45694.00;;;-141.29;85.11
22025;BME280;11176;51.448;6.650;2023-02-15T09:04:02;45702.00;;;-141.29;84.86
22025;BME280;11176;51.448;6.650;2023-02-15T09:06:30;45694.00;;;-141.29;84.77
22025;BME280;11176;51.448;6.650;2023-02-15T09:08:57;45706.00;;;-141.29;84.94
22025;BME280;11176;51.448;6.650;2023-02-15T09:11:26;45710.00;;;-141.29;84.94
22025;BME280;11176;51.448;6.650;2023-02-15T09:14:01;45718.00;;;-141.29;85.28
22025;BME280;11176;51.448;6.650;2023-02-15T09:16:31;45702.00;;;-141.29;84.49
22025;BME280;11176;51.448;6.650;2023-02-15T09:18:58;45690.00;;;-141.29;84.97
22025;BME280;11176;51.448;6.650;2023-02-15T09:21:26;45702.00;;;-141.29;84.44
22025;BME280;11176;51.448;6.650;2023-02-15T09:23:56;45686.00;;;-141.29;83.98
22025;BME280;11176;51.448;6.650;2023-02-15T09:26:24;45690.00;;;-141.29;84.39
22025;BME280;11176;51.448;6.650;2023-02-15T09:28:53;45680.03;;;-141.29;84.00
22025;BME280;11176;51.448;6.650;2023-02-15T09:31:25;45678.03;;;-141.29;84.18
22025;BME280;11176;51.448;6.650;2023-02-15T09:33:52;45694.00;;;-141.29;84.13
22025;BME280;11176;51.448;6.650;2023-02-15T09:36:27;45708.00;;;-141.29;83.91
22025;BME280;11176;51.448;6.650;2023-02-15T09:39:16;45686.00;;;-141.29;83.63
22025;BME280;11176;51.448;6.650;2023-02-15T09:44:42;45698.00;;;-141.29;82.67
22025;BME280;11176;51.448;6.650;2023-02-15T09:47:39;45694.00;;;-141.29;81.13
22025;BME280;11176;51.448;6.650;2023-02-15T09:53:23;45672.03;;;-141.29;81.18
22025;BME280;11176;51.448;6.650;2023-02-15T09:59:08;45672.03;;;-141.29;80.89
22025;BME280;11176;51.448;6.650;2023-02-15T10:02:02;45674.03;;;-141.29;80.47
22025;BME280;11176;51.448;6.650;2023-02-15T10:10:31;45654.03;;;-141.29;79.71
22025;BME280;11176;51.448;6.650;2023-02-15T10:13:32;45676.03;;;-141.29;78.68
22025;BME280;11176;51.448;6.650;2023-02-15T10:16:29;45658.03;;;-141.29;78.03
22025;BME280;11176;51.448;6.650;2023-02-15T10:19:07;45674.03;;;-141.29;77.83
22025;BME280;11176;51.448;6.650;2023-02-15T10:24:39;45662.03;;;-141.29;77.34
22025;BME280;11176;51.448;6.650;2023-02-15T10:27:21;45648.03;;;-141.29;76.96
22025;BME280;11176;51.448;6.650;2023-02-15T10:30:08;45640.03;;;-141.29;75.71
22025;BME280;11176;51.448;6.650;2023-02-15T10:32:49;45646.03;;;-141.29;75.56
22025;BME280;11176;51.448;6.650;2023-02-15T10:38:27;45642.03;;;-141.29;75.73
22025;BME280;11176;51.448;6.650;2023-02-15T10:41:42;45634.06;;;-141.29;75.28
22025;BME280;11176;51.448;6.650;2023-02-15T10:47:08;45626.06;;;-141.29;75.19
22025;BME280;11176;51.448;6.650;2023-02-15T10:55:09;45618.06;;;-141.29;73.72
22025;BME280;11176;51.448;6.650;2023-02-15T11:00:45;45614.06;;;-141.29;73.61
22025;BME280;11176;51.448;6.650;2023-02-15T11:03:29;45612.06;;;-141.29;73.30
22025;BME280;11176;51.448;6.650;2023-02-15T11:06:12;45586.09;;;-141.29;73.35
22025;BME280;11176;51.448;6.650;2023-02-15T11:08:46;45598.06;;;-141.29;71.68
22025;BME280;11176;51.448;6.650;2023-02-15T11:11:33;45586.09;;;-141.29;71.54
22025;BME280;11176;51.448;6.650;2023-02-15T11:14:08;45594.09;;;-141.29;72.13
22025;BME280;11176;51.448;6.650;2023-02-15T11:16:40;45596.06;;;-141.29;71.36
22025;BME280;11176;51.448;6.650;2023-02-15T11:21:45;45562.09;;;-141.29;66.86
22025;BME280;11176;51.448;6.650;2023-02-15T11:24:14;45554.09;;;-141.29;67.06
22025;BME280;11176;51.448;6.650;2023-02-15T11:26:48;45550.13;;;-141.29;66.10
22025;BME280;11176;51.448;6.650;2023-02-15T11:29:34;45548.13;;;-141.29;66.62
22025;BME280;11176;51.448;6.650;2023-02-15T11:32:21;45540.13;;;-141.29;62.88
22025;BME280;11176;51.448;6.650;2023-02-15T11:40:53;45522.13;;;-141.29;61.21
22025;BME280;11176;51.448;6.650;2023-02-15T11:46:00;45482.16;;;-141.29;59.27
22025;BME280;11176;51.448;6.650;2023-02-15T11:48:29;45490.16;;;-141.29;57.59
22025;BME280;11176;51.448;6.650;2023-02-15T11:50:56;45494.16;;;-141.29;58.02
22025;BME280;11176;51.448;6.650;2023-02-15T11:53:23;45478.16;;;-141.29;56.47
22025;BME280;11176;51.448;6.650;2023-02-15T11:55:54;45478.16;;;-141.29;55.87
22025;BME280;11176;51.448;6.650;2023-02-15T11:58:41;45474.16;;;-141.29;54.95
22025;BME280;11176;51.448;6.650;2023-02-15T12:01:30;45474.16;;;-141.29;52.54
22025;BME280;11176;51.448;6.650;2023-02-15T12:04:04;45466.19;;;-141.29;50.18
22025;BME280;11176;51.448;6.650;2023-02-15T12:06:44;45460.19;;;-141.29;48.68
22025;BME280;11176;51.448;6.650;2023-02-15T12:09:33;45442.19;;;-141.29;48.42
22025;BME280;11176;51.448;6.650;2023-02-15T12:12:20;45442.19;;;-141.29;48.09
22025;BME280;11176;51.448;6.650;2023-02-15T12:15:00;45434.19;;;-141.29;48.01
22025;BME280;11176;51.448;6.650;2023-02-15T12:17:29;45434.19;;;-141.29;46.54
22025;BME280;11176;51.448;6.650;2023-02-15T12:20:00;45434.19;;;-141.29;45.81
22025;BME280;11176;51.448;6.650;2023-02-15T12:22:30;45410.22;;;-141.29;46.40
22025;BME280;11176;51.448;6.650;2023-02-15T12:25:00;45416.22;;;-141.29;46.04
22025;BME280;11176;51.448;6.650;2023-02-15T12:27:30;45412.22;;;-141.29;44.85
22025;BME280;11176;51.448;6.650;2023-02-15T12:30:07;45414.22;;;-141.29;42.83
22025;BME280;11176;51.448;6.650;2023-02-15T12:35:43;45410.22;;;-141.29;41.28
22025;BME280;11176;51.448;6.650;2023-02-15T12:40:38;45386.25;;;-141.29;40.75
22025;BME280;11176;51.448;6.650;2023-02-15T12:43:25;45376.25;;;-141.29;39.65
22025;BME280;11176;51.448;6.650;2023-02-15T12:45:52;45376.25;;;-141.29;39.14
22025;BME280;11176;51.448;6.650;2023-02-15T12:48:20;45354.25;;;-141.29;38.38
22025;BME280;11176;51.448;6.650;2023-02-15T12:50:49;45364.25;;;-141.29;38.88
22025;BME280;11176;51.448;6.650;2023-02-15T12:53:34;45354.25;;;-141.29;38.00
22025;BME280;11176;51.448;6.650;2023-02-15T12:56:03;45350.28;;;-141.29;38.32
22025;BME280;11176;51.448;6.650;2023-02-15T12:58:31;45338.28;;;-141.29;38.09
22025;BME280;11176;51.448;6.650;2023-02-15T13:01:17;45330.28;;;-141.29;36.78
22025;BME280;11176;51.448;6.650;2023-02-15T13:06:25;45318.28;;;-141.29;36.12
22025;BME280;11176;51.448;6.650;2023-02-15T13:09:05;45320.28;;;-141.29;35.57
22025;BME280;11176;51.448;6.650;2023-02-15T13:11:32;45342.28;;;-141.29;35.17
22025;BME280;11176;51.448;6.650;2023-02-15T13:14:03;45326.28;;;-141.29;34.97
22025;BME280;11176;51.448;6.650;2023-02-15T13:16:33;45314.28;;;-141.29;35.79
22025;BME280;11176;51.448;6.650;2023-02-15T13:19:10;45314.28;;;-141.29;35.28
22025;BME280;11176;51.448;6.650;2023-02-15T13:21:41;45298.31;;;-141.29;35.45
22025;BME280;11176;51.448;6.650;2023-02-15T13:24:25;45290.31;;;-141.29;36.34
22025;BME280;11176;51.448;6.650;2023-02-15T13:26:55;45292.31;;;-141.29;36.76
22025;BME280;11176;51.448;6.650;2023-02-15T13:29:43;45310.31;;;-141.29;35.87
22025;BME280;11176;51.448;6.650;2023-02-15T13:32:34;45300.31;;;-141.29;34.23
22025;BME280;11176;51.448;6.650;2023-02-15T13:35:04;45304.31;;;-141.29;33.68
22025;BME280;11176;51.448;6.650;2023-02-15T13:37:57;45298.31;;;-141.29;33.78
22025;BME280;11176;51.448;6.650;2023-02-15T13:40:55;45298.31;;;-141.29;34.11
22025;BME280;11176;51.448;6.650;2023-02-15T13:49:08;45304.31;;;-141.29;33.45
22025;BME280;11176;51.448;6.650;2023-02-15T13:52:05;45284.31;;;-141.29;33.13
22025;BME280;11176;51.448;6.650;2023-02-15T14:08:21;45296.31;;;-141.29;31.83
22025;BME280;11176;51.448;6.650;2023-02-15T14:14:01;45278.31;;;-141.29;31.90
22025;BME280;11176;51.448;6.650;2023-02-15T14:16:45;45284.31;;;-141.29;31.25
22025;BME280;11176;51.448;6.650;2023-02-15T14:19:57;45288.31;;;-141.29;31.62
22025;BME280;11176;51.448;6.650;2023-02-15T14:22:33;45282.31;;;-141.29;31.96
22025;BME280;11176;51.448;6.650;2023-02-15T14:25:35;45282.31;;;-141.29;31.78
22025;BME280;11176;51.448;6.650;2023-02-15T14:28:10;45278.31;;;-141.29;31.87
22025;BME280;11176;51.448;6.650;2023-02-15T14:30:40;45298.31;;;-141.29;32.02
22025;BME280;11176;51.448;6.650;2023-02-15T14:35:48;45302.31;;;-141.29;32.19
22025;BME280;11176;51.448;6.650;2023-02-15T14:41:17;45306.31;;;-141.29;32.99
22025;BME280;11176;51.448;6.650;2023-02-15T14:46:47;45322.28;;;-141.29;33.83
22025;BME280;11176;51.448;6.650;2023-02-15T14:49:21;45314.28;;;-141.29;34.86
22025;BME280;11176;51.448;6.650;2023-02-15T14:57:20;45354.25;;;-141.29;35.39
22025;BME280;11176;51.448;6.650;2023-02-15T14:59:46;45350.28;;;-141.29;35.91
22025;BME280;11176;51.448;6.650;2023-02-15T15:02:21;45362.25;;;-141.29;36.59